Lambrook, Arkansas
Current Conditions -  °F | °C
As of 4:15 AM on Thursday 29 Jan 2015 (Local Time) from KCKM Reporting Station
Overcast Overcast  
Wind Chill: 54°   Ceiling: 9500
Heat Index: 54°   Visibility: 10mi
Dew Point: 43°   Wind: 14mph
Humidity: 67%   Direction: 180°S
Pressure: 30.07"   Gusts: 21mph
Location:  34.34°N, 90.97°W
Report Text: KCKM 291015Z AUTO 18012G18KT 10SM OVC095 12/06 A3007 RMK AO1
Loading
Personal Weather Stations






























Interactive Weather Map New forecast layout! Learn more

10-Day Weather Forecast

Advertisements
Track Severe Weather on mobile